KVAD/VAD METAR and TAF weather

Enter ICAO airport designator
Station Type Date Time Source
KVAD METAR 2019/06/17 11:56 UTC NOAA

KVAD 171156Z AUTO 14004KT 10SM CLR 22/22 A3005 RMK AO2 SLP176 T02240224 10224 20205 53008 $


Station Type Date Time Source
KVAD Decoded METAR 2019/06/17 11:56 UTC NOAA

Moody Air Force Base, GA, United States (KVAD) 30-58N 083-12W 71M
Jun 17, 2019 - 07:56 AM EDT / 2019.06.17 1156 UTC
Wind: from the SE (140 degrees) at 5 MPH (4 KT):0
Visibility: 10 mile(s):0
Sky conditions: clear
Temperature: 72.3 F (22.4 C)
Dew Point: 72.3 F (22.4 C)
Relative Humidity: 100%
Pressure (altimeter): 30.05 in. Hg (1017 hPa)
Pressure tendency: 0.02 inches (0.8 hPa) higher than three hours ago
ob: KVAD 171156Z AUTO 14004KT 10SM CLR 22/22 A3005 RMK AO2 SLP176 T02240224 10224 20205 53008
cycle: 12

Station Type Date Time Source
KVAD TAF 2019/06/17 11:52 UTC NOAA

TAF
AMD KVAD 171145Z 1711/1814 17006KT 9999 SKC QNH2998INS
BECMG 1714/1715 13006KT 9999 FEW040 QNH3013INS
TEMPO 1720/1801 15015G25KT 9000 -TSRA BKN030CB
BECMG 1800/1801 17006KT 9999 FEW040 QNH3003INS TX31/1719Z TN20/1711Z

Example: see airport list